Time;durP1;ratioP1;P1;durP2;ratioP2;P2;SDS_P1;SDS_P2;PMS_P1;PMS_P2;Temp;Humidity;BMP_temperature;BMP_pressure;BME280_temperature;BME280_humidity;BME280_pressure;Samples;Min_cycle;Max_cycle;Signal;HPM_P1;HPM_P2
2023/12/09 00:01:53;;;;;;;27.42;18.95;;;6.30;99.90;;;;;;7384536;19;20085;-69
2023/12/09 00:04:23;;;;;;;32.08;21.25;;;6.20;99.90;;;;;;7383011;19;20010;-68
2023/12/09 00:06:56;;;;;;;32.22;20.67;;;6.30;99.90;;;;;;7381161;19;20411;-69
2023/12/09 00:09:26;;;;;;;29.10;21.48;;;6.30;99.90;;;;;;7383418;19;20082;-69
2023/12/09 00:11:56;;;;;;;30.10;22.02;;;6.30;99.90;;;;;;7383415;19;20031;-68
2023/12/09 00:14:26;;;;;;;30.08;21.77;;;6.30;99.90;;;;;;7382894;19;20011;-69
2023/12/09 00:16:56;;;;;;;27.33;20.77;;;6.30;99.90;;;;;;7382746;19;20035;-68
2023/12/09 00:19:26;;;;;;;30.33;20.65;;;6.30;99.90;;;;;;7382241;19;20002;-68
2023/12/09 00:21:59;;;;;;;30.63;21.58;;;6.30;99.90;;;;;;7382563;19;20010;-68
2023/12/09 00:24:30;;;;;;;33.90;23.73;;;6.30;99.90;;;;;;7381565;19;20015;-68
2023/12/09 00:27:00;;;;;;;34.00;22.80;;;6.20;99.90;;;;;;7381917;19;20013;-68
2023/12/09 00:29:30;;;;;;;32.42;20.50;;;6.20;99.90;;;;;;7381777;19;20013;-68
2023/12/09 00:32:00;;;;;;;30.08;21.15;;;6.20;99.90;;;;;;7381417;19;20007;-68
2023/12/09 00:34:30;;;;;;;28.25;20.65;;;6.20;99.90;;;;;;7381625;19;20007;-69
2023/12/09 00:37:03;;;;;;;29.55;21.80;;;6.20;99.90;;;;;;7381828;19;20019;-69
2023/12/09 00:39:33;;;;;;;33.92;21.60;;;6.20;99.90;;;;;;7382763;19;20010;-68
2023/12/09 00:42:03;;;;;;;33.42;22.70;;;6.20;99.90;;;;;;7380853;19;20074;-69
2023/12/09 00:44:33;;;;;;;29.13;21.08;;;6.20;99.90;;;;;;7381839;19;20014;-70
2023/12/09 00:47:03;;;;;;;28.13;22.35;;;6.20;99.90;;;;;;7380349;19;20036;-69
2023/12/09 00:49:33;;;;;;;30.25;22.30;;;6.20;99.90;;;;;;7381889;19;20010;-69
2023/12/09 00:52:06;;;;;;;33.33;24.00;;;6.20;99.90;;;;;;7381533;19;20014;-69
2023/12/09 00:54:36;;;;;;;29.60;21.85;;;6.10;99.90;;;;;;7380368;19;20415;-69
2023/12/09 00:57:07;;;;;;;29.40;22.65;;;6.10;99.90;;;;;;7380749;19;20025;-68
2023/12/09 00:59:37;;;;;;;30.23;23.58;;;6.10;99.90;;;;;;7381820;19;20002;-68
2023/12/09 01:02:07;;;;;;;31.60;22.42;;;6.10;99.90;;;;;;7382019;19;20023;-68
2023/12/09 01:04:37;;;;;;;29.80;22.02;;;6.00;99.90;;;;;;7381748;19;20023;-68
2023/12/09 01:07:10;;;;;;;30.80;22.65;;;6.10;99.90;;;;;;7374773;19;20510;-68
2023/12/09 01:09:40;;;;;;;28.52;21.70;;;6.10;99.90;;;;;;7382314;19;20401;-69
2023/12/09 01:12:10;;;;;;;30.63;22.50;;;6.10;99.90;;;;;;7380991;19;20034;-68
2023/12/09 01:14:40;;;;;;;31.48;22.63;;;6.10;99.90;;;;;;7381115;19;20027;-68
2023/12/09 01:17:10;;;;;;;27.27;21.48;;;6.20;99.90;;;;;;7381591;19;20030;-69
2023/12/09 01:19:40;;;;;;;27.58;20.48;;;6.10;99.90;;;;;;7381434;19;20018;-68
2023/12/09 01:22:13;;;;;;;27.88;21.85;;;6.10;99.90;;;;;;7382208;19;20033;-68
2023/12/09 01:24:43;;;;;;;31.60;21.95;;;6.10;99.90;;;;;;7380920;19;20014;-69
2023/12/09 01:27:13;;;;;;;30.40;21.50;;;6.10;99.90;;;;;;7381164;19;20017;-69
2023/12/09 01:29:43;;;;;;;27.75;20.95;;;6.10;99.90;;;;;;7380492;19;20010;-69
2023/12/09 01:32:13;;;;;;;30.35;20.02;;;6.10;99.90;;;;;;7382315;19;20002;-69
2023/12/09 01:34:44;;;;;;;30.70;22.48;;;6.10;99.90;;;;;;7381165;19;20044;-69
2023/12/09 01:37:17;;;;;;;41.92;27.30;;;6.10;99.90;;;;;;7383786;19;20014;-68
2023/12/09 01:39:47;;;;;;;49.80;29.20;;;6.10;99.90;;;;;;7381678;19;20355;-68
2023/12/09 01:42:17;;;;;;;56.58;33.33;;;6.10;99.90;;;;;;7381670;19;20014;-69
2023/12/09 01:44:47;;;;;;;45.70;29.00;;;6.10;99.90;;;;;;7380364;19;20029;-69
2023/12/09 01:47:18;;;;;;;44.60;27.55;;;6.10;99.90;;;;;;7378298;19;20010;-69
2023/12/09 01:49:49;;;;;;;39.08;23.90;;;6.10;99.90;;;;;;7380723;19;20747;-68
2023/12/09 01:52:23;;;;;;;29.23;21.40;;;6.20;99.90;;;;;;7379498;19;20031;-69
2023/12/09 01:54:53;;;;;;;27.07;20.70;;;6.20;99.90;;;;;;7380901;19;20007;-70
2023/12/09 01:57:23;;;;;;;28.40;20.50;;;6.20;99.90;;;;;;7379267;19;20236;-68
2023/12/09 01:59:53;;;;;;;27.77;20.77;;;6.20;99.90;;;;;;7378819;19;20032;-69
2023/12/09 02:02:23;;;;;;;30.63;21.58;;;6.10;99.90;;;;;;7376424;19;20007;-69
2023/12/09 02:04:56;;;;;;;26.25;19.90;;;6.10;99.90;;;;;;7375184;19;20044;-70
2023/12/09 02:07:29;;;;;;;23.40;18.67;;;6.20;99.90;;;;;;7374909;19;20022;-69
2023/12/09 02:09:59;;;;;;;31.25;20.27;;;6.20;99.90;;;;;;7378526;19;20463;-69
2023/12/09 02:12:45;;;;;;;34.08;19.70;;;6.20;99.90;;;;;;7377565;19;20007;-69
2023/12/09 02:15:21;;;;;;;22.70;18.73;;;6.20;99.90;;;;;;7378368;19;20050;-69
2023/12/09 02:17:55;;;;;;;27.65;18.75;;;6.20;99.90;;;;;;7378620;19;20010;-69
2023/12/09 02:20:26;;;;;;;23.83;19.13;;;6.20;99.90;;;;;;7373827;19;20011;-69
2023/12/09 02:23:07;;;;;;;29.63;20.02;;;6.10;99.90;;;;;;7377617;19;20024;-69
2023/12/09 02:25:38;;;;;;;29.13;20.38;;;6.10;99.90;;;;;;7377655;19;20024;-69
2023/12/09 02:28:12;;;;;;;29.67;19.55;;;6.10;99.90;;;;;;7375719;19;20022;-69
2023/12/09 02:30:48;;;;;;;23.25;18.80;;;6.10;99.90;;;;;;7377663;19;20013;-69
2023/12/09 02:33:20;;;;;;;29.92;19.20;;;6.10;99.90;;;;;;7374739;19;20082;-69
2023/12/09 02:35:53;;;;;;;27.02;19.65;;;6.10;99.90;;;;;;7375947;19;20487;-69
2023/12/09 02:38:28;;;;;;;22.02;18.25;;;6.20;99.90;;;;;;7374507;19;20015;-70
2023/12/09 02:40:58;;;;;;;23.27;18.63;;;6.20;99.90;;;;;;7376838;19;20010;-69
2023/12/09 02:43:28;;;;;;;27.05;18.85;;;6.20;99.90;;;;;;7376631;19;20011;-69
2023/12/09 02:45:58;;;;;;;24.83;17.20;;;6.10;99.90;;;;;;7375810;19;20031;-68
2023/12/09 02:48:28;;;;;;;27.20;16.77;;;6.20;99.90;;;;;;7377086;19;20490;-68
2023/12/09 02:50:59;;;;;;;22.83;16.33;;;6.20;99.90;;;;;;7377689;19;20014;-68
2023/12/09 02:53:31;;;;;;;23.50;16.33;;;6.20;99.90;;;;;;7377105;19;20007;-68
2023/12/09 02:56:01;;;;;;;19.10;13.55;;;6.20;99.90;;;;;;7375531;19;20007;-69
2023/12/09 02:58:31;;;;;;;20.98;13.77;;;6.20;99.90;;;;;;7376696;19;20018;-69
2023/12/09 03:01:01;;;;;;;19.45;14.27;;;6.20;99.90;;;;;;7380095;19;20006;-70
2023/12/09 03:03:31;;;;;;;19.15;14.60;;;6.20;99.90;;;;;;7378258;19;20014;-69
2023/12/09 03:06:01;;;;;;;20.38;13.25;;;6.20;99.90;;;;;;7378152;19;20002;-69
2023/12/09 03:08:34;;;;;;;19.15;14.02;;;6.20;99.90;;;;;;7378604;19;20011;-68
2023/12/09 03:11:04;;;;;;;23.48;14.80;;;6.20;99.90;;;;;;7374217;19;20017;-69
2023/12/09 03:13:34;;;;;;;22.38;14.07;;;6.20;99.90;;;;;;7375848;19;20007;-69
2023/12/09 03:16:04;;;;;;;18.98;15.05;;;6.20;99.90;;;;;;7376233;19;20006;-69
2023/12/09 03:18:34;;;;;;;18.02;13.80;;;6.20;99.90;;;;;;7376121;19;20371;-69
2023/12/09 03:21:05;;;;;;;28.15;14.88;;;6.20;99.90;;;;;;7375686;19;20077;-69
2023/12/09 03:23:37;;;;;;;18.77;13.90;;;6.20;99.90;;;;;;7376567;19;20351;-69
2023/12/09 03:26:16;;;;;;;26.00;14.80;;;6.20;99.90;;;;;;7374929;19;20018;-69
2023/12/09 03:28:46;;;;;;;43.58;28.10;;;6.10;99.90;;;;;;7374554;19;20359;-69
2023/12/09 03:31:17;;;;;;;30.30;20.13;;;6.10;99.90;;;;;;7375759;19;20380;-69
2023/12/09 03:33:47;;;;;;;30.92;18.88;;;6.10;99.90;;;;;;7376242;19;20011;-69
2023/12/09 03:36:18;;;;;;;35.22;20.60;;;6.00;99.90;;;;;;7374777;19;20014;-69
2023/12/09 03:38:50;;;;;;;30.27;19.45;;;6.00;99.90;;;;;;7376298;19;20007;-69
2023/12/09 03:41:20;;;;;;;26.70;17.58;;;6.00;99.90;;;;;;7375617;19;20014;-69
2023/12/09 03:43:55;;;;;;;25.23;17.30;;;6.00;99.90;;;;;;7375656;19;20010;-69
2023/12/09 03:46:25;;;;;;;28.27;17.33;;;6.00;99.90;;;;;;7373977;19;20079;-69
2023/12/09 03:48:55;;;;;;;23.17;17.83;;;6.00;99.90;;;;;;7375611;19;20014;-69
2023/12/09 03:51:25;;;;;;;24.10;16.83;;;6.00;99.90;;;;;;7375780;19;20031;-68
2023/12/09 03:53:58;;;;;;;25.13;17.55;;;6.00;99.90;;;;;;7375039;19;20720;-69
2023/12/09 03:56:28;;;;;;;29.38;18.40;;;6.00;99.90;;;;;;7374678;19;20341;-69
2023/12/09 03:58:58;;;;;;;25.40;18.20;;;5.90;99.90;;;;;;7375126;19;20014;-68
2023/12/09 04:01:28;;;;;;;26.45;17.30;;;5.90;99.90;;;;;;7373593;19;20799;-69
2023/12/09 04:03:58;;;;;;;26.73;17.73;;;5.90;99.90;;;;;;7377392;19;20358;-69
2023/12/09 04:06:28;;;;;;;29.13;19.92;;;5.90;99.90;;;;;;7377178;19;20006;-69
2023/12/09 04:09:00;;;;;;;27.85;18.77;;;5.70;99.90;;;;;;7375103;19;20024;-69
2023/12/09 04:11:30;;;;;;;25.95;18.02;;;5.50;99.90;;;;;;7376267;19;20088;-69
2023/12/09 04:14:00;;;;;;;26.90;18.38;;;5.50;99.90;;;;;;7376082;19;20383;-69
2023/12/09 04:16:30;;;;;;;28.92;19.85;;;5.50;99.90;;;;;;7371494;19;20511;-69
2023/12/09 04:19:00;;;;;;;22.92;17.25;;;5.50;99.90;;;;;;7374422;19;20015;-69
2023/12/09 04:21:31;;;;;;;27.17;18.73;;;5.40;99.90;;;;;;7372482;19;20345;-69
2023/12/09 04:24:04;;;;;;;25.63;18.60;;;5.40;99.90;;;;;;7375324;19;20002;-69
2023/12/09 04:26:34;;;;;;;28.15;20.83;;;5.30;99.90;;;;;;7373954;19;20023;-69
2023/12/09 04:29:06;;;;;;;29.20;19.42;;;5.40;99.90;;;;;;7376409;19;20123;-69
2023/12/09 04:31:37;;;;;;;23.65;19.23;;;5.40;99.90;;;;;;7375499;19;20011;-69
2023/12/09 04:34:07;;;;;;;27.00;19.65;;;5.50;99.90;;;;;;7376176;19;20018;-68
2023/12/09 04:36:37;;;;;;;28.85;18.77;;;5.50;99.90;;;;;;7371564;19;20002;-69
2023/12/09 04:39:10;;;;;;;25.65;19.25;;;5.50;99.90;;;;;;7375519;19;20018;-69
2023/12/09 04:41:40;;;;;;;32.75;20.33;;;5.60;99.90;;;;;;7378282;19;20019;-69
2023/12/09 04:44:10;;;;;;;27.60;19.33;;;5.60;99.90;;;;;;7382098;19;20555;-69
2023/12/09 04:46:41;;;;;;;26.48;19.40;;;5.50;99.90;;;;;;7380842;19;20021;-70
2023/12/09 04:49:11;;;;;;;31.20;18.35;;;5.60;99.90;;;;;;7381365;19;20007;-69
2023/12/09 04:51:41;;;;;;;26.02;17.48;;;5.60;99.90;;;;;;7381143;19;20022;-69
2023/12/09 04:54:13;;;;;;;22.98;17.90;;;5.50;99.90;;;;;;7380937;19;20021;-69
2023/12/09 04:56:44;;;;;;;24.77;18.48;;;5.60;99.90;;;;;;7379176;19;20031;-69
2023/12/09 04:59:14;;;;;;;22.95;17.92;;;5.60;99.90;;;;;;7380705;19;20483;-69
2023/12/09 05:01:45;;;;;;;24.10;18.65;;;5.60;99.90;;;;;;7377368;19;20006;-70
2023/12/09 05:04:16;;;;;;;26.77;18.05;;;5.60;99.90;;;;;;7380304;19;20070;-69
2023/12/09 05:06:47;;;;;;;24.48;18.15;;;5.70;99.90;;;;;;7380086;19;20356;-68
2023/12/09 05:09:22;;;;;;;26.42;17.00;;;5.70;99.90;;;;;;7381046;19;20018;-70
2023/12/09 05:11:52;;;;;;;26.13;17.63;;;5.70;99.90;;;;;;7380773;19;20021;-70
2023/12/09 05:14:22;;;;;;;23.75;17.67;;;5.70;99.90;;;;;;7380546;19;20015;-67
2023/12/09 05:16:52;;;;;;;25.40;16.42;;;5.70;99.90;;;;;;7380003;19;20030;-67
2023/12/09 05:19:22;;;;;;;27.00;18.73;;;5.70;99.90;;;;;;7381473;19;20010;-67
2023/12/09 05:21:53;;;;;;;23.23;15.85;;;5.70;99.90;;;;;;7379753;19;20014;-68
2023/12/09 05:24:25;;;;;;;24.80;16.27;;;5.70;99.90;;;;;;7379363;19;20010;-67
2023/12/09 05:26:56;;;;;;;29.95;16.25;;;5.70;99.90;;;;;;7379427;19;20010;-69
2023/12/09 05:29:26;;;;;;;26.05;15.98;;;5.70;99.90;;;;;;7380704;19;20031;-68
2023/12/09 05:31:56;;;;;;;24.10;15.63;;;5.70;99.90;;;;;;7380646;19;20002;-68
2023/12/09 05:34:26;;;;;;;26.73;15.88;;;5.70;99.90;;;;;;7379064;19;20040;-68
2023/12/09 05:36:56;;;;;;;21.60;15.77;;;5.70;99.90;;;;;;7379464;19;20510;-68
2023/12/09 05:39:29;;;;;;;22.85;15.68;;;5.70;99.90;;;;;;7379994;19;20018;-68
2023/12/09 05:41:59;;;;;;;22.08;15.07;;;5.70;99.90;;;;;;7379414;19;20035;-68
2023/12/09 05:44:30;;;;;;;22.92;14.45;;;5.70;99.90;;;;;;7379771;19;20030;-68
2023/12/09 05:46:59;;;;;;;23.48;14.50;;;5.70;99.90;;;;;;7378140;19;20003;-68
2023/12/09 05:49:29;;;;;;;19.70;12.73;;;5.70;99.90;;;;;;7380577;19;20542;-67
2023/12/09 05:52:00;;;;;;;17.50;12.73;;;5.70;99.90;;;;;;7378119;19;20018;-68
2023/12/09 05:54:32;;;;;;;18.10;12.68;;;5.70;99.90;;;;;;7378988;19;20675;-68
2023/12/09 05:57:02;;;;;;;22.50;13.25;;;5.70;99.90;;;;;;7377411;19;20022;-68
2023/12/09 05:59:32;;;;;;;18.20;12.13;;;5.70;99.90;;;;;;7378835;19;20018;-68
2023/12/09 06:02:03;;;;;;;15.88;11.85;;;5.70;99.90;;;;;;7378416;19;20014;-68
2023/12/09 06:04:33;;;;;;;16.48;11.23;;;5.70;99.90;;;;;;7377773;19;20039;-68
2023/12/09 06:07:03;;;;;;;17.05;12.38;;;5.70;99.90;;;;;;7377776;19;20110;-68
2023/12/09 06:09:35;;;;;;;18.88;13.68;;;5.70;99.90;;;;;;7378102;19;20401;-68
2023/12/09 06:12:06;;;;;;;23.70;12.18;;;5.70;99.90;;;;;;7378244;19;20010;-67
2023/12/09 06:14:36;;;;;;;18.00;12.60;;;5.70;99.90;;;;;;7379296;19;20788;-68
2023/12/09 06:17:06;;;;;;;23.00;13.43;;;5.70;99.90;;;;;;7377042;19;20014;-70
2023/12/09 06:19:36;;;;;;;18.35;12.20;;;5.70;99.90;;;;;;7378743;19;20597;-70
2023/12/09 06:22:06;;;;;;;17.77;12.52;;;5.70;99.90;;;;;;7378008;19;20007;-67
2023/12/09 06:24:39;;;;;;;19.92;12.73;;;5.70;99.90;;;;;;7378179;19;20707;-69
2023/12/09 06:27:09;;;;;;;18.60;12.70;;;5.70;99.90;;;;;;7378619;19;20033;-68
2023/12/09 06:29:39;;;;;;;17.77;12.52;;;5.80;99.90;;;;;;7379238;19;20059;-68
2023/12/09 06:32:09;;;;;;;21.25;11.82;;;5.80;99.90;;;;;;7381864;19;20023;-68
2023/12/09 06:34:39;;;;;;;17.17;11.65;;;5.80;99.90;;;;;;7380915;19;20029;-68
2023/12/09 06:37:10;;;;;;;19.35;11.38;;;5.80;99.90;;;;;;7377818;19;20161;-69
2023/12/09 06:39:42;;;;;;;17.45;11.85;;;5.70;99.90;;;;;;7378166;19;20100;-69
2023/12/09 06:42:12;;;;;;;18.13;11.43;;;5.80;99.90;;;;;;7378979;19;20488;-69
2023/12/09 06:44:43;;;;;;;20.17;12.02;;;5.80;99.90;;;;;;7377053;19;20006;-69
2023/12/09 06:47:13;;;;;;;16.63;11.07;;;5.70;99.90;;;;;;7377584;19;20018;-68
2023/12/09 06:49:43;;;;;;;15.68;11.05;;;5.80;99.90;;;;;;7378055;19;20010;-69
2023/12/09 06:52:13;;;;;;;18.52;10.80;;;5.80;99.90;;;;;;7377756;19;20017;-68
2023/12/09 06:54:46;;;;;;;14.95;9.57;;;5.80;99.90;;;;;;7377599;19;20518;-68
2023/12/09 06:57:16;;;;;;;14.55;10.30;;;5.80;99.90;;;;;;7377894;19;20028;-68
2023/12/09 06:59:46;;;;;;;15.90;10.32;;;5.80;99.90;;;;;;7373968;19;20011;-67
2023/12/09 07:02:16;;;;;;;17.75;10.05;;;5.80;99.90;;;;;;7376598;19;20002;-68
2023/12/09 07:04:47;;;;;;;15.23;10.73;;;5.80;99.90;;;;;;7374340;19;20003;-68
2023/12/09 07:07:17;;;;;;;15.70;10.23;;;5.90;99.90;;;;;;7377112;19;20007;-68
2023/12/09 07:09:55;;;;;;;16.88;10.63;;;5.90;99.90;;;;;;7373995;19;20085;-68
2023/12/09 07:12:26;;;;;;;17.85;9.82;;;6.00;99.90;;;;;;7377320;19;20019;-69
2023/12/09 07:14:56;;;;;;;14.38;9.27;;;6.00;99.90;;;;;;7375405;19;20018;-68
2023/12/09 07:17:26;;;;;;;16.58;9.32;;;5.90;99.90;;;;;;7373211;19;20049;-68
2023/12/09 07:19:58;;;;;;;19.20;9.38;;;6.00;99.90;;;;;;7375168;19;20107;-68
2023/12/09 07:22:28;;;;;;;26.50;15.45;;;6.00;99.90;;;;;;7375229;19;20007;-68
2023/12/09 07:25:01;;;;;;;75.38;37.03;;;6.00;99.90;;;;;;7374745;19;20471;-68
2023/12/09 07:27:31;;;;;;;83.82;39.42;;;6.00;99.90;;;;;;7374547;19;20084;-68
2023/12/09 07:30:01;;;;;;;53.85;23.67;;;6.00;99.90;;;;;;7375240;19;20057;-68
2023/12/09 07:32:32;;;;;;;25.88;14.35;;;6.10;99.90;;;;;;7375042;19;20003;-69
2023/12/09 07:35:02;;;;;;;17.73;10.20;;;6.10;99.90;;;;;;7373731;19;20014;-69
2023/12/09 07:37:32;;;;;;;16.67;9.20;;;6.20;99.90;;;;;;7375113;19;20394;-68
2023/12/09 07:40:06;;;;;;;12.13;8.23;;;6.20;99.90;;;;;;7373492;19;20021;-69
2023/12/09 07:42:36;;;;;;;17.10;8.60;;;6.20;99.90;;;;;;7376424;19;20436;-69
2023/12/09 07:45:07;;;;;;;13.35;7.65;;;6.20;99.90;;;;;;7374304;19;20015;-69
2023/12/09 07:47:38;;;;;;;12.95;7.70;;;6.30;99.90;;;;;;7374909;19;20018;-68
2023/12/09 07:50:08;;;;;;;10.75;6.55;;;6.30;99.90;;;;;;7373553;19;20433;-68
2023/12/09 07:52:38;;;;;;;11.02;7.05;;;6.30;99.90;;;;;;7375135;19;20501;-68
2023/12/09 07:55:11;;;;;;;15.93;6.57;;;6.30;99.90;;;;;;7375197;19;20021;-68
2023/12/09 07:57:41;;;;;;;9.10;6.53;;;6.30;99.90;;;;;;7373741;19;20010;-68
2023/12/09 08:00:13;;;;;;;12.80;6.82;;;6.30;99.90;;;;;;7374396;19;20463;-67
2023/12/09 08:02:43;;;;;;;11.38;7.00;;;6.40;99.90;;;;;;7374376;19;20067;-68
2023/12/09 08:05:13;;;;;;;10.60;6.07;;;6.40;99.90;;;;;;7373166;19;20895;-69
2023/12/09 08:07:43;;;;;;;12.05;6.32;;;6.40;99.90;;;;;;7373802;19;20010;-68
2023/12/09 08:10:16;;;;;;;9.55;6.10;;;6.30;99.90;;;;;;7375172;19;20007;-68
2023/12/09 08:12:46;;;;;;;19.80;9.55;;;6.30;99.90;;;;;;7374746;19;20030;-68
2023/12/09 08:15:17;;;;;;;9.10;5.75;;;6.30;99.90;;;;;;7375712;19;20093;-68
2023/12/09 08:17:47;;;;;;;12.18;5.57;;;6.40;99.90;;;;;;7379663;19;20030;-68
2023/12/09 08:20:17;;;;;;;8.93;5.30;;;6.40;99.90;;;;;;7381806;19;20018;-69
2023/12/09 08:22:47;;;;;;;12.70;5.40;;;6.40;94.70;;;;;;7381029;19;20384;-68
2023/12/09 08:25:20;;;;;;;10.32;4.82;;;6.40;89.50;;;;;;7381251;19;20021;-68
2023/12/09 08:27:50;;;;;;;10.32;4.93;;;6.40;90.90;;;;;;7380061;19;20023;-69
2023/12/09 08:30:20;;;;;;;10.30;5.25;;;6.40;79.40;;;;;;7379069;19;20379;-68
2023/12/09 08:32:50;;;;;;;11.25;5.50;;;6.40;68.20;;;;;;7379759;19;20020;-68
2023/12/09 08:35:20;;;;;;;11.18;5.13;;;6.40;66.50;;;;;;7380127;19;20715;-67
2023/12/09 08:37:50;;;;;;;10.88;4.97;;;6.40;62.60;;;;;;7380260;19;20011;-68
2023/12/09 08:40:23;;;;;;;9.68;4.72;;;6.40;63.40;;;;;;7378732;19;20007;-69
2023/12/09 08:42:53;;;;;;;10.18;5.38;;;6.50;53.20;;;;;;7380677;19;20022;-69
2023/12/09 08:45:24;;;;;;;10.02;5.60;;;6.60;52.30;;;;;;7380320;19;20010;-68
2023/12/09 08:47:54;;;;;;;15.93;10.88;;;6.60;47.30;;;;;;7381066;19;20101;-68
2023/12/09 08:50:24;;;;;;;11.55;6.45;;;6.70;41.20;;;;;;7381257;19;20027;-68
2023/12/09 08:52:55;;;;;;;10.70;4.82;;;6.80;33.30;;;;;;7381733;19;20010;-68
2023/12/09 08:55:28;;;;;;;9.18;5.55;;;6.80;25.60;;;;;;7380178;19;20014;-69
2023/12/09 08:57:58;;;;;;;10.27;5.40;;;6.90;23.70;;;;;;7376537;19;20486;-69
2023/12/09 09:00:28;;;;;;;7.00;4.75;;;7.00;17.70;;;;;;7383001;19;20035;-69
2023/12/09 09:02:58;;;;;;;9.63;5.97;;;7.10;14.80;;;;;;7386111;19;20010;-68
2023/12/09 09:05:28;;;;;;;9.93;5.68;;;7.10;12.50;;;;;;7383057;19;20018;-68
2023/12/09 09:07:58;;;;;;;9.68;5.30;;;7.20;9.50;;;;;;7380629;19;20007;-69
2023/12/09 09:10:31;;;;;;;11.18;5.05;;;7.20;3.20;;;;;;7378139;19;20009;-68
2023/12/09 09:13:01;;;;;;;9.82;5.50;;;7.30;6.10;;;;;;7376334;19;20014;-68
2023/12/09 09:15:32;;;;;;;7.25;4.75;;;7.30;4.70;;;;;;7378558;19;20048;-68
2023/12/09 09:18:02;;;;;;;9.10;5.13;;;7.30;7.90;;;;;;7376458;19;20025;-67
2023/12/09 09:20:32;;;;;;;8.82;4.95;;;7.30;9.30;;;;;;7378389;19;20018;-68
2023/12/09 09:23:02;;;;;;;7.30;5.25;;;7.40;11.70;;;;;;7380427;19;20022;-68
2023/12/09 09:25:35;;;;;;;9.43;5.32;;;7.30;12.80;;;;;;7380217;19;20018;-68
2023/12/09 09:28:05;;;;;;;11.23;5.88;;;7.30;15.30;;;;;;7378496;19;20018;-68
2023/12/09 09:30:35;;;;;;;8.85;4.85;;;7.20;10.10;;;;;;7377791;19;20010;-68
2023/12/09 09:33:06;;;;;;;7.68;5.10;;;7.20;10.90;;;;;;7380908;19;20014;-68
2023/12/09 09:35:36;;;;;;;10.90;5.28;;;7.20;8.00;;;;;;7380094;19;20011;-68
2023/12/09 09:38:06;;;;;;;7.60;5.00;;;7.20;1.00;;;;;;7379692;19;20321;-68
2023/12/09 09:40:39;;;;;;;13.15;6.25;;;7.20;1.00;;;;;;7379545;19;20025;-68
2023/12/09 09:43:14;;;;;;;10.70;5.43;;;7.10;2.60;;;;;;7378300;19;20102;-68
2023/12/09 09:45:46;;;;;;;10.52;5.72;;;7.20;5.60;;;;;;7377904;19;20011;-67
2023/12/09 09:48:19;;;;;;;9.07;4.93;;;7.20;1.80;;;;;;7377857;19;20016;-68
2023/12/09 09:50:54;;;;;;;10.45;4.70;;;7.20;1.00;;;;;;7379048;19;20002;-68
2023/12/09 09:53:37;;;;;;;9.45;4.68;;;7.30;1.00;;;;;;7376976;19;20105;-68
2023/12/09 09:56:12;;;;;;;20.27;11.82;;;7.30;1.00;;;;;;7372890;19;20424;-68
2023/12/09 09:58:43;;;;;;;38.63;19.27;;;7.30;1.00;;;;;;7376101;19;20367;-68
2023/12/09 10:01:15;;;;;;;17.67;9.68;;;7.30;1.00;;;;;;7380973;19;20078;-68
2023/12/09 10:03:45;;;;;;;14.35;6.38;;;7.40;1.00;;;;;;7380889;19;20054;-68
2023/12/09 10:06:16;;;;;;;8.30;4.22;;;7.40;1.00;;;;;;7379166;19;20014;-68
2023/12/09 10:08:46;;;;;;;13.93;4.47;;;7.30;1.00;;;;;;7380418;19;20043;-68
2023/12/09 10:11:22;;;;;;;9.52;4.68;;;7.40;1.00;;;;;;7380627;19;20010;-69
2023/12/09 10:13:52;;;;;;;7.22;4.80;;;7.30;1.00;;;;;;7379636;19;20017;-68
2023/12/09 10:16:22;;;;;;;11.43;5.93;;;7.40;1.00;;;;;;7378970;19;20370;-68
2023/12/09 10:18:53;;;;;;;9.98;5.53;;;7.30;1.00;;;;;;7379239;19;20336;-68
2023/12/09 10:21:24;;;;;;;7.35;4.60;;;7.40;1.00;;;;;;7378850;19;20014;-68
2023/12/09 10:23:54;;;;;;;7.68;4.53;;;7.50;1.00;;;;;;7379389;19;20018;-69
2023/12/09 10:26:27;;;;;;;7.97;3.75;;;7.50;1.00;;;;;;7377797;19;20082;-69
2023/12/09 10:28:58;;;;;;;8.88;3.80;;;7.50;1.00;;;;;;7378256;19;20604;-69
2023/12/09 10:31:47;;;;;;;6.53;4.07;;;7.50;1.00;;;;;;7373597;19;20044;-68
2023/12/09 10:34:35;;;;;;;7.65;4.00;;;7.50;1.00;;;;;;7378578;19;20099;-68
2023/12/09 10:37:06;;;;;;;9.75;5.45;;;7.50;1.00;;;;;;7376370;19;20031;-68
2023/12/09 10:39:37;;;;;;;13.88;7.82;;;7.50;1.00;;;;;;7376951;19;20494;-67
2023/12/09 10:42:11;;;;;;;7.32;4.50;;;7.60;1.00;;;;;;7378712;19;20784;-67
2023/12/09 10:44:42;;;;;;;7.35;4.82;;;7.60;1.00;;;;;;7379086;19;20015;-68
2023/12/09 10:47:12;;;;;;;8.88;5.07;;;7.50;1.00;;;;;;7379828;19;20021;-67
2023/12/09 10:49:43;;;;;;;9.30;5.30;;;7.60;1.00;;;;;;7378892;19;20324;-68
2023/12/09 10:52:13;;;;;;;7.10;5.13;;;7.60;1.00;;;;;;7378960;19;20011;-68
2023/12/09 10:54:43;;;;;;;10.38;5.00;;;7.70;1.00;;;;;;7378442;19;20007;-67
2023/12/09 10:57:16;;;;;;;6.50;4.82;;;7.70;1.00;;;;;;7378459;19;20007;-68
2023/12/09 10:59:46;;;;;;;6.88;4.68;;;7.80;1.00;;;;;;7376720;19;20018;-69
2023/12/09 11:02:17;;;;;;;8.50;5.50;;;7.90;1.00;;;;;;7376546;19;20014;-68
2023/12/09 11:04:48;;;;;;;8.73;5.13;;;7.90;1.00;;;;;;7379655;19;20002;-68
2023/12/09 11:07:19;;;;;;;8.32;5.45;;;8.00;1.00;;;;;;7372816;19;20017;-68
2023/12/09 11:09:50;;;;;;;9.10;5.70;;;8.00;1.00;;;;;;7379646;19;20014;-69
2023/12/09 11:12:33;;;;;;;7.63;5.25;;;8.00;1.00;;;;;;7378411;19;20010;-68
2023/12/09 11:15:09;;;;;;;7.65;4.40;;;8.10;1.00;;;;;;6865189;19;2004117;-68
2023/12/09 11:17:40;;;;;;;7.65;4.80;;;8.10;1.00;;;;;;7376465;19;20022;-68
2023/12/09 11:20:13;;;;;;;9.13;5.05;;;8.00;1.00;;;;;;7376918;19;20039;-68
2023/12/09 11:22:46;;;;;;;7.10;4.53;;;8.00;1.00;;;;;;7377521;19;20467;-68
2023/12/09 11:25:25;;;;;;;10.27;5.65;;;8.10;1.00;;;;;;7377706;19;20492;-68
2023/12/09 11:27:58;;;;;;;6.60;4.55;;;7.90;1.00;;;;;;7374803;19;20010;-68
2023/12/09 11:30:33;;;;;;;6.40;4.40;;;7.90;1.00;;;;;;7379803;19;20029;-68
2023/12/09 11:33:04;;;;;;;7.70;4.90;;;7.90;1.00;;;;;;7377542;19;20007;-68
2023/12/09 11:35:36;;;;;;;7.55;4.80;;;7.90;1.00;;;;;;7377683;19;20477;-68
2023/12/09 11:38:07;;;;;;;6.03;4.35;;;8.00;1.00;;;;;;7375719;19;20043;-68
2023/12/09 11:40:38;;;;;;;6.88;4.85;;;8.00;1.00;;;;;;7375466;19;20705;-68
2023/12/09 11:43:11;;;;;;;8.13;4.95;;;8.00;1.00;;;;;;7374882;19;20014;-67
2023/12/09 11:45:43;;;;;;;6.57;4.90;;;8.00;1.00;;;;;;7376208;19;20325;-68
2023/12/09 11:48:14;;;;;;;8.10;4.57;;;8.00;1.00;;;;;;7375520;19;20356;-68
2023/12/09 11:50:44;;;;;;;8.07;5.68;;;8.00;1.00;;;;;;7374744;19;20546;-68
2023/12/09 11:53:15;;;;;;;10.15;7.55;;;8.00;1.00;;;;;;7375225;19;20145;-68
2023/12/09 11:55:45;;;;;;;9.25;6.88;;;7.90;1.00;;;;;;7376605;19;20058;-68
2023/12/09 11:58:17;;;;;;;6.75;4.80;;;8.00;1.00;;;;;;7374207;19;20026;-69
2023/12/09 12:00:47;;;;;;;8.07;4.65;;;8.10;1.00;;;;;;7375488;19;20006;-68
2023/12/09 12:03:18;;;;;;;5.50;4.82;;;8.10;1.00;;;;;;7375228;19;20032;-67
2023/12/09 12:05:48;;;;;;;11.05;5.40;;;8.20;1.00;;;;;;7376241;19;20010;-68
2023/12/09 12:08:18;;;;;;;10.00;6.20;;;8.10;1.00;;;;;;7373836;19;20018;-68
2023/12/09 12:10:48;;;;;;;10.90;6.28;;;8.10;1.00;;;;;;7373571;19;20014;-69
2023/12/09 12:13:22;;;;;;;7.00;5.10;;;8.20;1.00;;;;;;7375743;19;20003;-68
2023/12/09 12:15:54;;;;;;;9.40;5.03;;;8.10;1.00;;;;;;7378130;19;20073;-69
2023/12/09 12:18:26;;;;;;;8.38;5.28;;;8.10;1.00;;;;;;7379466;19;20018;-68
2023/12/09 12:20:56;;;;;;;7.72;4.65;;;8.10;1.00;;;;;;7377659;19;20017;-68
2023/12/09 12:23:26;;;;;;;6.00;5.10;;;8.20;1.00;;;;;;7377700;19;20811;-68
2023/12/09 12:26:02;;;;;;;5.80;4.30;;;8.20;1.00;;;;;;7373903;19;20525;-68
2023/12/09 12:28:35;;;;;;;6.13;4.75;;;8.20;1.00;;;;;;7375284;19;20006;-68
2023/12/09 12:31:06;;;;;;;6.32;5.13;;;8.20;1.00;;;;;;7377419;19;20070;-68
2023/12/09 12:33:39;;;;;;;7.65;4.90;;;8.30;1.00;;;;;;7375888;19;20018;-69
2023/12/09 12:36:11;;;;;;;5.63;4.32;;;8.30;1.00;;;;;;7374869;19;20142;-68
2023/12/09 12:38:42;;;;;;;7.32;4.57;;;8.30;1.00;;;;;;7373935;19;20109;-68
2023/12/09 12:41:12;;;;;;;7.53;4.80;;;8.20;1.00;;;;;;7374700;19;20014;-68
2023/12/09 12:43:45;;;;;;;5.05;4.15;;;8.20;1.00;;;;;;7373926;19;20014;-69
2023/12/09 12:46:20;;;;;;;6.40;4.70;;;8.20;1.00;;;;;;7373599;19;20007;-69
2023/12/09 12:48:50;;;;;;;5.40;4.55;;;8.10;1.00;;;;;;7374775;19;20049;-68
2023/12/09 12:51:21;;;;;;;12.00;4.40;;;8.20;1.00;;;;;;7374893;19;20030;-70
2023/12/09 12:53:54;;;;;;;5.93;4.45;;;8.20;1.00;;;;;;7373071;19;20032;-69
2023/12/09 12:56:24;;;;;;;7.97;4.30;;;8.20;1.00;;;;;;7372351;19;20010;-69
2023/12/09 12:58:57;;;;;;;6.72;4.22;;;8.20;1.00;;;;;;7374986;19;20006;-68
2023/12/09 13:01:27;;;;;;;9.57;4.82;;;8.20;1.00;;;;;;7376188;19;20605;-68
2023/12/09 13:03:57;;;;;;;6.00;4.28;;;8.20;1.00;;;;;;7377350;19;20015;-68
2023/12/09 13:06:28;;;;;;;5.50;4.00;;;8.20;1.00;;;;;;7383072;19;20078;-68